Terminal Aerodrome Forecast
Issued by NWS Louisville, KY

Home | Current Version | Previous Version | Text Only | Print | Product List | Glossary On
Versions: 1 2 3 4 5 6 7 8 9 10 11 12 13 14 15
609
FTUS43 KLMK 121720
TAFSDF
TAF
KSDF 121720Z 1218/1324 29010G20KT P6SM BKN025
     FM122100 30013G18KT P6SM VCSH BKN025
     FM130300 31013KT P6SM BKN028
     FM130800 32007KT P6SM SCT030=

USA.gov is the U.S. government's official web portal to all federal, state and local government web resources and services.